Aérodrome :
LOGIN :

S'inscrire | Disclaimer

   EN    FR    IT 

 










Légende :    VFR   VFR Marginal   IFR   IFR Intensif   IFR Très Intensif
Visi : 
Plafond : 
>= 8 km
>= 3000ft
5 à 8 km
1000 à 3000 ft
1500m à 5 km
500 à 1000 ft
800 à 1500m
200 à 500 ft
< 800m
< 200 ft
Symboles :   Orages  Brouillard  Fortes neiges  Fortes précipitations  Vent > 20 kt
SIGMETs :   Divers  Orages  Givrage  Turbulence  Onde Orograph.  Cendres Volcan.







- Altitude de l'aérodrome : 1411 ft
- Code IATA : GVA


LSGG - Genève Cointrin

DERNIER METAR :
  • 192120Z 36004KT 320V030 9000 -SN BKN013 BKN015 01/00 Q1002 R04/5905// NOSIG

METARs EXPIRÉS :
  • 192050Z 01004KT 8000 -SN SCT011 BKN013 01/00 Q1003 R04/5905// NOSIG
  • 192020Z 01004KT 330V040 8000 BKN010 BKN012 00/00 Q1003 R04/5905// NOSIG
  • 191950Z 36003KT 310V040 5000 -SN BKN009 BKN012 00/00 Q1003 R04/5905// NOSIG
  • 191920Z 36006KT 330V040 3200 -SN FEW003 BKN008 BKN010 00/00 Q1003 RESN R04/5901// NOSIG
  • 191850Z 02005KT 0800 R04/0900D R22/0900N SN VV005 00/00 Q1003 R04/5901// NOSIG

TAF TAF LSGG
Valide du 19 à 21h jusqu'au 21 à 03h UTC


192025Z 1921/2103 03005KT 4500 -SN BKN010 TX04/2015Z TN00/2006Z
TEMPO 1921/2010 2000 SN VV002
BECMG 2012/2014 9999 NSW BKN050
ATIS : +41 22 417 40 81
Pas de NOTAMs connus pour ce terrain.



MET'MAP, la Météo Aéronautique d'un coup d'oeil ! - Copyright ORBIFLY Décembre 2007 - Disclaimer

ORBIFLY MET'MAP TEAM :

Programmation & Développement : Alexandra Zaïnal
Conception & Développement : Baudouin d'Aumeries
Co-Programmation & Développement : Marc-Olivier Méhu
Soutien technique & logistique : Manuel Goepfert

Contact : metmap@orbifly.com




SOURCES & CREDITS :

   NOAA